Time;durP1;ratioP1;P1;durP2;ratioP2;P2;SDS_P1;SDS_P2;PMS_P1;PMS_P2;Temp;Humidity;BMP_temperature;BMP_pressure;BME280_temperature;BME280_humidity;BME280_pressure;Samples;Min_cycle;Max_cycle;Signal;HPM_P1;HPM_P2
2023/07/24 00:00:47;;;;;;;6.63;4.10;;;18.90;92.10;;;;;;5053411;28;20409;-77
2023/07/24 00:03:12;;;;;;;5.23;4.00;;;18.90;93.80;;;;;;5057359;28;20401;-76
2023/07/24 00:05:38;;;;;;;6.20;4.30;;;18.90;90.20;;;;;;5057952;28;20415;-75
2023/07/24 00:08:04;;;;;;;5.50;3.73;;;18.80;89.10;;;;;;5058074;28;20374;-75
2023/07/24 00:10:29;;;;;;;5.07;3.97;;;18.80;87.80;;;;;;5057896;28;20734;-75
2023/07/24 00:12:55;;;;;;;4.63;4.20;;;18.60;90.20;;;;;;5057386;28;20712;-76
2023/07/24 00:15:23;;;;;;;5.13;3.90;;;18.50;91.40;;;;;;5036340;28;20716;-75
2023/07/24 00:17:49;;;;;;;6.00;4.43;;;18.30;95.80;;;;;;4992379;28;1752872;-75
2023/07/24 00:20:15;;;;;;;5.50;4.10;;;18.20;99.70;;;;;;5057861;28;20870;-75
2023/07/24 00:22:40;;;;;;;6.38;4.13;;;18.20;99.90;;;;;;5056810;28;20449;-75
2023/07/24 00:25:06;;;;;;;7.63;5.00;;;18.10;99.90;;;;;;5058931;28;20382;-75
2023/07/24 00:27:32;;;;;;;6.47;4.63;;;18.00;99.90;;;;;;5058433;28;20385;-75
2023/07/24 00:29:57;;;;;;;8.17;5.20;;;17.90;99.90;;;;;;5058433;28;20409;-74
2023/07/24 00:32:23;;;;;;;8.00;4.83;;;17.80;99.90;;;;;;5055631;28;20479;-76
2023/07/24 00:34:48;;;;;;;8.70;4.80;;;17.80;99.90;;;;;;5055720;28;20385;-75
2023/07/24 00:37:14;;;;;;;6.57;5.10;;;17.70;99.90;;;;;;5056055;28;20447;-74
2023/07/24 00:39:39;;;;;;;8.57;5.20;;;17.70;99.90;;;;;;5057542;28;20390;-76
2023/07/24 00:42:05;;;;;;;7.68;5.38;;;17.70;99.90;;;;;;5055903;28;20389;-75
2023/07/24 00:44:31;;;;;;;10.13;5.68;;;17.70;99.90;;;;;;5053650;28;20406;-75
2023/07/24 00:46:57;;;;;;;6.37;5.00;;;17.70;99.90;;;;;;5053805;28;20863;-77
2023/07/24 00:49:22;;;;;;;6.53;5.10;;;17.70;99.90;;;;;;5053221;28;20917;-77
2023/07/24 00:51:48;;;;;;;10.27;5.43;;;17.70;99.90;;;;;;5052783;28;20742;-76
2023/07/24 00:54:16;;;;;;;5.30;4.80;;;17.70;99.90;;;;;;5052945;28;20393;-75
2023/07/24 00:56:43;;;;;;;7.40;5.00;;;17.80;99.90;;;;;;5055427;28;20762;-75
2023/07/24 00:59:09;;;;;;;9.07;5.30;;;17.80;99.90;;;;;;5055064;28;20388;-76
2023/07/24 01:01:36;;;;;;;8.97;5.47;;;17.70;99.90;;;;;;5051994;28;20389;-76
2023/07/24 01:04:04;;;;;;;8.07;5.07;;;17.70;99.90;;;;;;5052304;28;20413;-76
2023/07/24 01:06:30;;;;;;;10.57;5.50;;;17.70;99.90;;;;;;5053201;28;20865;-76
2023/07/24 01:08:55;;;;;;;8.53;6.00;;;17.80;99.90;;;;;;5052031;28;20393;-76
2023/07/24 01:11:29;;;;;;;8.53;6.07;;;17.90;99.90;;;;;;5052980;28;20382;-76
2023/07/24 01:14:09;;;;;;;8.45;5.70;;;17.90;99.90;;;;;;5052215;28;20750;-76
2023/07/24 01:16:37;;;;;;;7.25;5.35;;;18.00;99.90;;;;;;5053428;28;20381;-75
2023/07/24 01:19:46;;;;;;;7.47;5.20;;;18.00;99.90;;;;;;5052814;28;20408;-76
2023/07/24 01:22:14;;;;;;;8.45;5.30;;;18.10;99.90;;;;;;4951074;29;20446;-74
2023/07/24 01:24:58;;;;;;;6.35;4.50;;;18.10;99.90;;;;;;4951774;29;20942;-75
2023/07/24 01:27:24;;;;;;;10.70;5.30;;;18.10;99.90;;;;;;5011442;28;20389;-75
2023/07/24 01:29:49;;;;;;;7.22;5.10;;;18.00;99.90;;;;;;5051275;28;20377;-76
2023/07/24 01:32:15;;;;;;;6.23;5.07;;;18.00;99.90;;;;;;5050603;28;20771;-77
2023/07/24 01:34:40;;;;;;;8.30;5.07;;;17.90;99.90;;;;;;5051389;28;20394;-76
2023/07/24 01:37:06;;;;;;;7.77;5.40;;;17.90;99.90;;;;;;5051263;28;20389;-77
2023/07/24 01:39:33;;;;;;;8.43;5.40;;;17.90;99.90;;;;;;5051500;28;20412;-76
2023/07/24 01:41:58;;;;;;;7.07;5.10;;;17.80;99.90;;;;;;5051400;28;20507;-77
2023/07/24 01:44:24;;;;;;;7.82;5.30;;;17.80;99.90;;;;;;5034241;28;20477;-75
2023/07/24 01:46:50;;;;;;;7.90;5.67;;;17.70;99.90;;;;;;5051307;28;20951;-75
2023/07/24 01:49:15;;;;;;;10.70;6.10;;;17.70;99.90;;;;;;5051081;28;21146;-75
2023/07/24 01:51:41;;;;;;;10.70;5.90;;;17.70;99.90;;;;;;5050958;28;20381;-75
2023/07/24 01:54:06;;;;;;;13.53;6.20;;;17.70;99.90;;;;;;5052892;28;20440;-76
2023/07/24 01:56:32;;;;;;;8.90;6.70;;;17.70;99.90;;;;;;5051030;28;20746;-76
2023/07/24 01:58:57;;;;;;;9.60;6.47;;;17.70;99.90;;;;;;5050889;28;20955;-76
2023/07/24 02:01:23;;;;;;;9.70;6.67;;;17.80;99.90;;;;;;5050536;28;20382;-76
2023/07/24 02:03:48;;;;;;;12.50;7.43;;;17.80;99.90;;;;;;5051091;28;20393;-76
2023/07/24 02:06:14;;;;;;;11.73;7.20;;;17.80;99.90;;;;;;5050826;28;20382;-76
2023/07/24 02:08:39;;;;;;;9.90;6.33;;;17.80;99.90;;;;;;5050796;28;20431;-76
2023/07/24 02:11:05;;;;;;;11.33;7.50;;;17.80;99.90;;;;;;5032836;28;20389;-76
2023/07/24 02:13:30;;;;;;;9.85;7.25;;;17.80;99.90;;;;;;5051248;28;20381;-76
2023/07/24 02:15:56;;;;;;;11.97;7.20;;;17.80;99.90;;;;;;5051334;28;20393;-75
2023/07/24 02:18:21;;;;;;;11.97;7.53;;;17.80;99.90;;;;;;5050509;28;20404;-76
2023/07/24 02:20:50;;;;;;;10.68;7.55;;;17.80;99.90;;;;;;5050754;28;20385;-76
2023/07/24 02:23:16;;;;;;;10.80;7.50;;;17.90;99.90;;;;;;5050477;28;20898;-75
2023/07/24 02:25:42;;;;;;;13.15;7.25;;;17.90;99.90;;;;;;5050644;28;20397;-76
2023/07/24 02:28:08;;;;;;;13.07;7.80;;;17.90;99.90;;;;;;5032804;28;20380;-75
2023/07/24 02:30:38;;;;;;;10.10;6.90;;;17.90;99.90;;;;;;5050948;28;20390;-75
2023/07/24 02:33:03;;;;;;;13.88;7.13;;;18.00;99.90;;;;;;5050711;28;20404;-76
2023/07/24 02:35:29;;;;;;;12.25;7.78;;;18.00;99.90;;;;;;5051339;28;20831;-76
2023/07/24 02:37:54;;;;;;;8.67;6.70;;;18.00;99.90;;;;;;5051277;28;20396;-77
2023/07/24 02:40:20;;;;;;;10.67;7.40;;;18.00;99.90;;;;;;5050744;28;20384;-76
2023/07/24 02:42:45;;;;;;;10.75;7.22;;;18.10;99.90;;;;;;5034001;28;20409;-76
2023/07/24 02:45:11;;;;;;;10.47;6.80;;;18.10;99.90;;;;;;5052561;28;20397;-75
2023/07/24 02:47:37;;;;;;;13.80;7.28;;;18.10;99.90;;;;;;5055005;28;20381;-75
2023/07/24 02:50:03;;;;;;;11.07;7.47;;;18.10;99.90;;;;;;5054875;28;20385;-75
2023/07/24 02:52:29;;;;;;;10.18;6.32;;;18.10;99.90;;;;;;5054400;28;20388;-75
2023/07/24 02:54:54;;;;;;;12.53;7.53;;;18.20;99.90;;;;;;5054665;28;20378;-75
2023/07/24 02:57:20;;;;;;;9.38;6.55;;;18.20;99.90;;;;;;5054620;28;20464;-75
2023/07/24 02:59:46;;;;;;;11.07;7.50;;;18.10;99.90;;;;;;5054381;28;20496;-75
2023/07/24 03:02:12;;;;;;;15.00;7.90;;;18.20;99.90;;;;;;5054212;28;20374;-75
2023/07/24 03:04:37;;;;;;;17.70;7.15;;;18.30;99.90;;;;;;5055128;28;20731;-75
2023/07/24 03:07:03;;;;;;;12.20;7.73;;;18.20;99.90;;;;;;5054554;28;20443;-75
2023/07/24 03:09:29;;;;;;;12.10;7.20;;;18.20;99.90;;;;;;5054385;28;20385;-75
2023/07/24 03:11:54;;;;;;;9.85;7.47;;;18.20;99.90;;;;;;5054228;28;20382;-75
2023/07/24 03:14:20;;;;;;;10.97;7.73;;;18.20;99.90;;;;;;5054171;28;20882;-75
2023/07/24 03:16:45;;;;;;;14.20;7.50;;;18.20;99.90;;;;;;5054391;28;20389;-76
2023/07/24 03:19:11;;;;;;;14.98;7.53;;;18.20;99.90;;;;;;5057438;28;20435;-77
2023/07/24 03:21:36;;;;;;;13.27;7.67;;;18.20;99.90;;;;;;5060792;28;20397;-76
2023/07/24 03:24:02;;;;;;;10.93;7.72;;;18.20;99.90;;;;;;5061942;28;20436;-77
2023/07/24 03:26:27;;;;;;;11.68;7.78;;;18.20;99.90;;;;;;5063487;28;20398;-77
2023/07/24 03:28:53;;;;;;;11.97;7.17;;;18.20;99.90;;;;;;5063438;28;20429;-77
2023/07/24 03:31:19;;;;;;;13.43;7.33;;;18.20;99.90;;;;;;5062482;28;20456;-76
2023/07/24 03:33:44;;;;;;;10.98;7.40;;;18.20;99.90;;;;;;5062385;28;20409;-77
2023/07/24 03:36:10;;;;;;;13.10;7.90;;;18.10;99.90;;;;;;5060818;28;20455;-77
2023/07/24 03:38:35;;;;;;;11.77;8.07;;;18.10;99.90;;;;;;5057026;28;20480;-76
2023/07/24 03:41:01;;;;;;;14.73;7.68;;;18.20;99.90;;;;;;5062060;28;20396;-76
2023/07/24 03:43:26;;;;;;;13.60;7.90;;;18.20;99.90;;;;;;5060280;28;20488;-77
2023/07/24 03:45:52;;;;;;;13.60;7.60;;;18.20;99.90;;;;;;5062422;28;20458;-77
2023/07/24 03:48:17;;;;;;;14.85;8.10;;;18.20;99.90;;;;;;5067594;28;20377;-76
2023/07/24 03:50:43;;;;;;;19.63;7.90;;;18.20;99.90;;;;;;5066742;28;20416;-75
2023/07/24 03:53:08;;;;;;;10.75;7.07;;;18.30;99.90;;;;;;5067654;28;20385;-77
2023/07/24 03:55:34;;;;;;;12.65;7.40;;;18.20;99.90;;;;;;5049019;28;20400;-76
2023/07/24 03:57:59;;;;;;;14.87;7.63;;;18.20;99.90;;;;;;5057613;28;20427;-77
2023/07/24 04:00:25;;;;;;;9.07;6.90;;;18.20;99.90;;;;;;5055470;28;20381;-76
2023/07/24 04:02:51;;;;;;;11.88;7.88;;;18.20;99.90;;;;;;5055782;28;20405;-77
2023/07/24 04:05:16;;;;;;;13.70;7.70;;;18.30;99.90;;;;;;5054509;28;20417;-77
2023/07/24 04:07:42;;;;;;;10.47;6.70;;;18.30;99.90;;;;;;5054491;28;20381;-77
2023/07/24 04:10:08;;;;;;;13.35;7.32;;;18.30;99.90;;;;;;5055364;28;20778;-75
2023/07/24 04:12:33;;;;;;;13.65;7.10;;;18.30;99.90;;;;;;5054790;28;20396;-77
2023/07/24 04:14:59;;;;;;;11.43;7.30;;;18.20;99.90;;;;;;5054847;28;20406;-76
2023/07/24 04:17:24;;;;;;;13.03;7.53;;;18.20;99.90;;;;;;5053643;28;20396;-76
2023/07/24 04:19:50;;;;;;;14.82;7.60;;;18.30;99.90;;;;;;5054499;28;20390;-77
2023/07/24 04:22:15;;;;;;;11.50;7.20;;;18.30;99.90;;;;;;5061651;28;20424;-75
2023/07/24 04:24:41;;;;;;;11.20;7.80;;;18.40;99.90;;;;;;5060480;28;20409;-78
2023/07/24 04:27:07;;;;;;;12.88;7.70;;;18.50;99.90;;;;;;5062043;28;20711;-77
2023/07/24 04:29:32;;;;;;;13.90;7.40;;;18.40;99.90;;;;;;5045340;28;20393;-77
2023/07/24 04:31:58;;;;;;;13.27;7.93;;;18.40;99.90;;;;;;5062383;28;20428;-77
2023/07/24 04:34:23;;;;;;;13.27;7.75;;;18.40;99.90;;;;;;5061056;28;20417;-77
2023/07/24 04:36:49;;;;;;;19.90;8.13;;;18.40;99.90;;;;;;5055281;28;20385;-78
2023/07/24 04:39:14;;;;;;;13.37;7.80;;;18.40;99.90;;;;;;5054131;28;20392;-77
2023/07/24 04:41:40;;;;;;;14.38;7.88;;;18.40;99.90;;;;;;5054377;28;20390;-78
2023/07/24 04:44:05;;;;;;;14.07;7.53;;;18.50;99.90;;;;;;5054961;28;20909;-77
2023/07/24 04:46:31;;;;;;;14.93;7.70;;;18.50;99.90;;;;;;5036483;28;20433;-77
2023/07/24 04:48:57;;;;;;;14.43;7.32;;;18.50;99.90;;;;;;5036072;28;20396;-77
2023/07/24 04:51:22;;;;;;;13.97;8.00;;;18.60;99.90;;;;;;5054020;28;20420;-76
2023/07/24 04:53:48;;;;;;;14.50;7.50;;;18.70;97.20;;;;;;5054346;28;20642;-77
2023/07/24 04:56:13;;;;;;;13.57;7.25;;;18.70;90.40;;;;;;5052964;28;20452;-77
2023/07/24 04:58:39;;;;;;;12.37;7.10;;;18.70;93.10;;;;;;5055886;28;20404;-77
2023/07/24 05:01:05;;;;;;;11.13;6.40;;;18.80;90.10;;;;;;5053904;28;20389;-77
2023/07/24 05:03:31;;;;;;;15.02;7.60;;;18.80;89.50;;;;;;5054061;28;20925;-77
2023/07/24 05:05:57;;;;;;;12.80;7.35;;;18.90;88.60;;;;;;5054282;28;20465;-76
2023/07/24 05:08:23;;;;;;;10.73;6.40;;;18.90;88.50;;;;;;5036724;28;20444;-78
2023/07/24 05:10:55;;;;;;;16.60;7.93;;;19.00;87.60;;;;;;5040924;28;20390;-77
2023/07/24 05:13:20;;;;;;;11.40;7.15;;;19.00;85.90;;;;;;5061780;28;20893;-77
2023/07/24 05:15:46;;;;;;;11.80;8.00;;;19.10;80.20;;;;;;5061509;28;20449;-76
2023/07/24 05:18:11;;;;;;;14.20;7.23;;;19.20;81.60;;;;;;5061103;28;20397;-77
2023/07/24 05:20:37;;;;;;;13.90;6.80;;;19.30;80.30;;;;;;5058586;28;20396;-75
2023/07/24 05:23:02;;;;;;;10.97;7.50;;;19.40;79.70;;;;;;5057616;28;20440;-77
2023/07/24 05:25:28;;;;;;;14.20;6.83;;;19.30;80.20;;;;;;5057559;28;20389;-77
2023/07/24 05:27:53;;;;;;;12.23;7.18;;;19.30;80.40;;;;;;5054883;28;20386;-76
2023/07/24 05:30:19;;;;;;;13.23;7.33;;;19.20;83.20;;;;;;5035946;28;20818;-78
2023/07/24 05:32:45;;;;;;;11.93;6.85;;;19.10;84.80;;;;;;5056843;28;20382;-77
2023/07/24 05:35:10;;;;;;;11.18;6.38;;;19.20;81.90;;;;;;5059011;28;20477;-77
2023/07/24 05:37:36;;;;;;;14.43;7.50;;;19.20;81.70;;;;;;5039606;28;20854;-77
2023/07/24 05:40:02;;;;;;;10.80;6.40;;;19.30;81.20;;;;;;5057192;28;20374;-76
2023/07/24 05:42:27;;;;;;;13.18;6.95;;;19.40;80.50;;;;;;5063599;28;20834;-77
2023/07/24 05:44:53;;;;;;;10.15;6.95;;;19.50;78.00;;;;;;5069708;28;20416;-76
2023/07/24 05:47:18;;;;;;;15.90;7.77;;;19.60;77.90;;;;;;5063141;28;20740;-77
2023/07/24 05:49:44;;;;;;;12.23;6.80;;;19.70;77.20;;;;;;5057920;28;20762;-78
2023/07/24 05:52:10;;;;;;;10.95;7.20;;;19.70;77.60;;;;;;5062465;28;20404;-77
2023/07/24 05:54:35;;;;;;;13.30;7.33;;;19.70;78.80;;;;;;5064279;28;20412;-77
2023/07/24 05:57:01;;;;;;;11.82;7.13;;;19.80;78.60;;;;;;5065806;28;20497;-77
2023/07/24 05:59:26;;;;;;;13.10;7.15;;;19.90;76.20;;;;;;5063717;28;20399;-76
2023/07/24 06:01:52;;;;;;;18.00;7.37;;;20.10;74.10;;;;;;5043159;28;20496;-76
2023/07/24 06:04:17;;;;;;;9.95;7.07;;;20.20;72.40;;;;;;5057390;28;20405;-77
2023/07/24 06:06:43;;;;;;;13.23;7.00;;;20.30;71.20;;;;;;5058611;28;20389;-77
2023/07/24 06:09:09;;;;;;;13.83;7.63;;;20.40;69.20;;;;;;5059933;28;20938;-77
2023/07/24 06:11:34;;;;;;;11.10;6.47;;;20.50;63.50;;;;;;5059270;28;20382;-76
2023/07/24 06:14:00;;;;;;;11.33;6.23;;;20.70;61.20;;;;;;5070852;28;20377;-76
2023/07/24 06:16:25;;;;;;;14.90;6.80;;;20.70;63.70;;;;;;5048427;28;20397;-77
2023/07/24 06:18:51;;;;;;;12.50;6.80;;;20.60;62.20;;;;;;5044439;28;20488;-76
2023/07/24 06:21:16;;;;;;;11.10;6.37;;;20.80;59.60;;;;;;5044608;28;20526;-77
2023/07/24 06:23:42;;;;;;;10.60;5.88;;;21.00;57.80;;;;;;5061224;28;20677;-77
2023/07/24 06:26:07;;;;;;;10.60;6.13;;;21.40;54.20;;;;;;5061179;28;20374;-77
2023/07/24 06:28:33;;;;;;;9.45;5.60;;;21.60;49.90;;;;;;5055797;28;20377;-76
2023/07/24 06:30:58;;;;;;;12.97;5.83;;;21.80;49.30;;;;;;5034365;28;20386;-77
2023/07/24 06:33:24;;;;;;;7.03;5.20;;;21.90;47.80;;;;;;5054521;28;20704;-77
2023/07/24 06:35:50;;;;;;;12.15;6.03;;;22.00;46.10;;;;;;5035389;28;20442;-78
2023/07/24 06:38:16;;;;;;;9.20;5.22;;;22.00;46.00;;;;;;5052306;28;20454;-77
2023/07/24 06:40:42;;;;;;;9.97;5.90;;;21.90;46.50;;;;;;5052984;28;20408;-77
2023/07/24 06:43:07;;;;;;;10.27;5.60;;;22.00;44.10;;;;;;5052676;28;20437;-76
2023/07/24 06:45:33;;;;;;;10.38;5.40;;;22.10;44.40;;;;;;5035513;28;20400;-77
2023/07/24 06:50:45;;;;;;;7.80;5.28;;;22.40;44.80;;;;;;5009280;28;20843;-77
2023/07/24 06:53:10;;;;;;;7.70;4.70;;;22.40;43.50;;;;;;5013001;28;20397;-78
2023/07/24 06:55:36;;;;;;;8.60;5.00;;;22.70;40.60;;;;;;5013631;28;20381;-77
2023/07/24 06:58:02;;;;;;;5.23;4.37;;;22.80;39.60;;;;;;5011011;28;20399;-77
2023/07/24 07:00:27;;;;;;;12.27;4.90;;;22.90;39.00;;;;;;5012565;28;20886;-77
2023/07/24 07:02:53;;;;;;;5.80;4.50;;;23.10;38.70;;;;;;5037192;22;20577;-72
2023/07/24 07:05:18;;;;;;;6.70;4.83;;;22.90;38.70;;;;;;5031263;28;20383;-73
2023/07/24 07:07:44;;;;;;;6.43;4.20;;;22.70;39.80;;;;;;5031497;28;20848;-73
2023/07/24 07:10:10;;;;;;;7.27;4.67;;;22.30;40.60;;;;;;5031015;28;20418;-72
2023/07/24 07:12:35;;;;;;;7.10;4.30;;;22.10;42.40;;;;;;5031007;28;20436;-73
2023/07/24 07:15:01;;;;;;;10.63;5.30;;;21.90;42.50;;;;;;5030971;28;20379;-73
2023/07/24 07:17:26;;;;;;;6.93;4.30;;;21.70;44.60;;;;;;5030938;28;20665;-73
2023/07/24 07:19:52;;;;;;;7.63;4.50;;;21.70;43.70;;;;;;5030931;28;20383;-73
2023/07/24 07:22:18;;;;;;;8.27;4.77;;;21.70;43.60;;;;;;5030612;28;20743;-74
2023/07/24 07:24:44;;;;;;;8.20;4.90;;;21.90;42.00;;;;;;5030173;28;20482;-74
2023/07/24 07:27:09;;;;;;;6.93;4.68;;;22.00;42.00;;;;;;5029980;28;20440;-73
2023/07/24 07:29:35;;;;;;;7.88;4.45;;;22.10;41.00;;;;;;5031277;28;20466;-73
2023/07/24 07:32:00;;;;;;;7.30;4.30;;;22.20;39.80;;;;;;5015378;28;20387;-73
2023/07/24 07:34:26;;;;;;;6.55;4.40;;;22.10;40.10;;;;;;5034341;28;20490;-74
2023/07/24 07:36:52;;;;;;;4.67;4.07;;;22.10;40.20;;;;;;5016504;28;20884;-73
2023/07/24 07:39:17;;;;;;;10.07;4.33;;;22.10;39.70;;;;;;5034018;28;20426;-74
2023/07/24 07:41:43;;;;;;;6.65;4.15;;;22.00;40.60;;;;;;5033926;28;20387;-74
2023/07/24 07:44:08;;;;;;;6.23;4.40;;;22.00;39.90;;;;;;5033766;28;20395;-73
2023/07/24 07:46:34;;;;;;;7.95;4.10;;;22.10;40.40;;;;;;5033852;28;20780;-73
2023/07/24 07:48:59;;;;;;;8.57;4.30;;;22.10;39.40;;;;;;5033906;28;20445;-73
2023/07/24 07:51:26;;;;;;;7.47;4.23;;;22.50;37.70;;;;;;5033629;28;20854;-74
2023/07/24 07:53:51;;;;;;;10.32;4.40;;;22.60;37.80;;;;;;5034304;28;20887;-74
2023/07/24 07:56:17;;;;;;;8.50;4.20;;;22.70;36.50;;;;;;5033627;28;20387;-72
2023/07/24 07:58:42;;;;;;;4.87;3.53;;;22.80;35.90;;;;;;5033495;28;20395;-74
2023/07/24 08:01:08;;;;;;;8.63;3.88;;;22.80;35.60;;;;;;5033359;28;20474;-74
2023/07/24 08:03:34;;;;;;;6.17;4.33;;;22.90;35.20;;;;;;5033092;28;20415;-74
2023/07/24 08:06:00;;;;;;;7.20;4.20;;;22.90;35.00;;;;;;5032948;28;20890;-74
2023/07/24 08:08:25;;;;;;;8.03;3.80;;;23.00;34.40;;;;;;5033145;28;20387;-73
2023/07/24 08:10:51;;;;;;;7.03;3.65;;;23.10;33.70;;;;;;5033064;28;20383;-72
2023/07/24 08:13:17;;;;;;;6.15;4.00;;;23.20;33.50;;;;;;5033051;28;20484;-74
2023/07/24 08:15:42;;;;;;;7.20;3.93;;;23.10;33.60;;;;;;5033417;28;20387;-74
2023/07/24 08:18:08;;;;;;;5.60;3.80;;;23.00;34.10;;;;;;5034137;28;20387;-74
2023/07/24 08:20:38;;;;;;;6.87;3.60;;;23.00;33.90;;;;;;5033006;28;20474;-74
2023/07/24 08:23:04;;;;;;;5.13;3.80;;;23.00;33.30;;;;;;5033563;28;20422;-73
2023/07/24 08:25:29;;;;;;;8.23;4.10;;;23.10;33.60;;;;;;5032474;28;20447;-74
2023/07/24 08:27:55;;;;;;;6.53;3.95;;;23.20;33.20;;;;;;5032797;28;20385;-73
2023/07/24 08:30:20;;;;;;;4.37;3.80;;;23.20;32.50;;;;;;5033601;28;20934;-73
2023/07/24 08:32:46;;;;;;;6.03;4.20;;;23.10;33.30;;;;;;5032461;28;20379;-73
2023/07/24 08:35:12;;;;;;;5.90;4.00;;;23.20;33.60;;;;;;5032661;28;20429;-72
2023/07/24 08:37:38;;;;;;;5.13;4.20;;;23.60;32.20;;;;;;5032439;28;20884;-74
2023/07/24 08:40:04;;;;;;;8.63;3.90;;;23.70;31.40;;;;;;5032656;28;20748;-74
2023/07/24 08:42:31;;;;;;;8.02;3.70;;;23.70;31.80;;;;;;5030903;28;20391;-73
2023/07/24 08:44:58;;;;;;;6.43;3.92;;;23.70;31.20;;;;;;5032364;28;20410;-74
2023/07/24 08:47:24;;;;;;;6.30;3.60;;;23.70;31.20;;;;;;5032285;28;20429;-74
2023/07/24 08:49:51;;;;;;;6.40;3.73;;;23.50;31.50;;;;;;5032653;28;20387;-72
2023/07/24 08:52:17;;;;;;;7.20;4.17;;;23.60;31.30;;;;;;5032383;28;20390;-74
2023/07/24 08:54:44;;;;;;;5.82;3.55;;;23.60;30.90;;;;;;5032596;28;20473;-73
2023/07/24 08:57:11;;;;;;;6.43;3.50;;;23.20;32.30;;;;;;5033015;28;20395;-73
2023/07/24 08:59:36;;;;;;;5.20;3.40;;;23.10;33.20;;;;;;5032419;28;20466;-74
2023/07/24 09:02:02;;;;;;;5.43;3.63;;;22.90;33.50;;;;;;5031771;28;20434;-73
2023/07/24 09:04:28;;;;;;;4.53;3.08;;;22.70;34.00;;;;;;5031884;28;20548;-73
2023/07/24 09:06:57;;;;;;;5.70;3.10;;;22.50;34.70;;;;;;5031999;28;20394;-74
2023/07/24 09:09:22;;;;;;;4.85;3.50;;;22.50;34.70;;;;;;5031969;28;20771;-73
2023/07/24 09:11:53;;;;;;;3.90;3.30;;;22.30;35.00;;;;;;5031483;28;20379;-73
2023/07/24 09:14:22;;;;;;;6.30;3.60;;;22.20;35.80;;;;;;5031767;28;20462;-73
2023/07/24 09:16:47;;;;;;;6.60;3.75;;;22.30;35.90;;;;;;5031887;28;20414;-72
2023/07/24 09:19:19;;;;;;;6.07;3.92;;;22.20;36.50;;;;;;5031718;28;20792;-73
2023/07/24 09:21:45;;;;;;;7.95;4.30;;;22.20;36.40;;;;;;5031562;28;20375;-72
2023/07/24 09:24:15;;;;;;;8.43;4.70;;;22.20;36.80;;;;;;5031644;28;20862;-73
2023/07/24 09:26:51;;;;;;;5.72;4.15;;;22.20;36.00;;;;;;5031480;28;20383;-73
2023/07/24 09:29:18;;;;;;;8.20;3.97;;;22.20;35.70;;;;;;5031222;28;20437;-73
2023/07/24 09:31:45;;;;;;;6.55;4.10;;;22.10;35.90;;;;;;5032099;28;20744;-72
2023/07/24 09:34:15;;;;;;;7.90;4.50;;;22.20;35.80;;;;;;5032258;28;20418;-72
2023/07/24 09:36:41;;;;;;;7.40;4.10;;;22.40;35.20;;;;;;5031550;28;20427;-74
2023/07/24 09:39:10;;;;;;;10.00;5.10;;;22.40;35.50;;;;;;5031404;28;20383;-74
2023/07/24 09:41:36;;;;;;;7.97;4.32;;;22.40;36.80;;;;;;5031427;28;20387;-73
2023/07/24 09:44:01;;;;;;;7.60;4.23;;;22.30;37.20;;;;;;5031214;28;20407;-74
2023/07/24 09:46:29;;;;;;;6.47;4.80;;;22.40;38.40;;;;;;5031047;28;20800;-74
2023/07/24 09:48:56;;;;;;;6.85;4.55;;;22.60;38.60;;;;;;5031798;28;20383;-74
2023/07/24 09:51:23;;;;;;;6.93;4.15;;;22.70;37.80;;;;;;5031152;28;20426;-73
2023/07/24 09:53:56;;;;;;;5.18;4.00;;;23.10;38.00;;;;;;5032132;28;20398;-73
2023/07/24 09:56:23;;;;;;;8.02;4.60;;;23.70;35.40;;;;;;5031875;28;20977;-73
2023/07/24 09:58:54;;;;;;;5.63;3.92;;;24.10;33.60;;;;;;5032066;28;20767;-73
2023/07/24 10:01:20;;;;;;;6.93;4.53;;;24.40;31.70;;;;;;5032463;28;20424;-74
2023/07/24 10:03:47;;;;;;;6.70;4.40;;;24.50;31.50;;;;;;5031160;28;20429;-74
2023/07/24 10:06:14;;;;;;;5.95;4.50;;;24.50;30.30;;;;;;5031290;28;20438;-72
2023/07/24 10:08:41;;;;;;;7.47;4.70;;;24.60;27.80;;;;;;5031059;28;20387;-74
2023/07/24 10:11:09;;;;;;;8.15;4.50;;;24.70;29.10;;;;;;5030845;28;20766;-73
2023/07/24 10:13:36;;;;;;;5.70;4.10;;;24.90;28.70;;;;;;5030874;28;20396;-73
2023/07/24 10:16:04;;;;;;;6.60;4.18;;;25.10;27.50;;;;;;5030748;28;20424;-73
2023/07/24 10:18:30;;;;;;;7.90;4.40;;;25.10;28.30;;;;;;5031245;28;20397;-74
2023/07/24 10:21:04;;;;;;;6.68;3.97;;;25.10;26.50;;;;;;5012720;28;20391;-73
2023/07/24 10:23:30;;;;;;;6.38;4.05;;;25.10;26.10;;;;;;5030458;28;20411;-72
2023/07/24 10:26:01;;;;;;;10.43;4.65;;;25.10;26.60;;;;;;5030436;28;20429;-74
2023/07/24 10:28:39;;;;;;;7.43;4.20;;;25.10;26.80;;;;;;5030464;28;20418;-73
2023/07/24 10:31:20;;;;;;;4.80;3.80;;;25.30;25.40;;;;;;5030415;28;20413;-73
2023/07/24 10:33:46;;;;;;;8.02;4.55;;;25.40;26.30;;;;;;5031608;28;20395;-76
2023/07/24 10:36:16;;;;;;;7.37;4.10;;;25.50;25.30;;;;;;5031893;28;20394;-74
2023/07/24 10:38:42;;;;;;;7.30;4.10;;;25.40;25.20;;;;;;5031260;28;20398;-73
2023/07/24 10:41:10;;;;;;;6.35;4.00;;;24.70;27.00;;;;;;5030309;28;20383;-74
2023/07/24 10:43:44;;;;;;;4.33;3.40;;;24.00;27.80;;;;;;5030156;28;20410;-73
2023/07/24 10:46:10;;;;;;;9.88;4.40;;;23.70;29.40;;;;;;5030128;28;20871;-73
2023/07/24 10:48:36;;;;;;;7.30;4.00;;;23.30;33.50;;;;;;5030187;28;20440;-72
2023/07/24 10:51:10;;;;;;;6.72;4.30;;;23.10;35.00;;;;;;5030169;28;20383;-71
2023/07/24 10:53:37;;;;;;;11.52;4.40;;;23.20;36.40;;;;;;5029962;28;20740;-71
2023/07/24 10:56:04;;;;;;;7.45;4.25;;;23.40;36.00;;;;;;5030970;28;20390;-74
2023/07/24 10:58:29;;;;;;;5.78;3.50;;;23.30;36.00;;;;;;5030151;28;20395;-73
2023/07/24 11:00:56;;;;;;;8.35;4.00;;;23.40;35.00;;;;;;5030012;28;20432;-73
2023/07/24 11:03:22;;;;;;;5.23;3.43;;;24.00;36.40;;;;;;5029798;28;20418;-73
2023/07/24 11:05:47;;;;;;;6.22;4.10;;;24.60;32.90;;;;;;5030957;28;20379;-73
2023/07/24 11:08:17;;;;;;;5.00;3.50;;;24.90;31.70;;;;;;5033796;28;20383;-73
2023/07/24 11:10:50;;;;;;;4.00;3.28;;;24.90;29.10;;;;;;5034225;28;20397;-73
2023/07/24 11:13:17;;;;;;;6.55;3.30;;;24.60;31.50;;;;;;5033478;28;20473;-73
2023/07/24 11:15:43;;;;;;;4.97;3.27;;;24.10;32.80;;;;;;5034250;28;20390;-72
2023/07/24 11:18:10;;;;;;;4.63;3.07;;;23.80;34.70;;;;;;5033971;28;20748;-73
2023/07/24 11:20:53;;;;;;;3.70;3.20;;;23.40;32.90;;;;;;5033810;28;20449;-73
2023/07/24 11:23:19;;;;;;;5.32;3.70;;;23.30;34.60;;;;;;5033562;28;20414;-72
2023/07/24 11:25:46;;;;;;;6.63;3.80;;;23.00;35.30;;;;;;5033958;28;20853;-73
2023/07/24 11:28:13;;;;;;;5.63;4.00;;;22.50;36.80;;;;;;5033245;28;20383;-73
2023/07/24 11:30:39;;;;;;;6.57;4.00;;;22.20;39.00;;;;;;5015442;28;20490;-73
2023/07/24 11:33:07;;;;;;;5.05;3.50;;;22.00;39.10;;;;;;5033819;28;20474;-72
2023/07/24 11:35:33;;;;;;;11.48;2.40;;;21.70;47.50;;;;;;5032940;28;20407;-71
2023/07/24 11:37:59;;;;;;;7.93;1.90;;;18.60;96.00;;;;;;5030891;28;20931;-72
2023/07/24 11:40:39;;;;;;;9.83;2.60;;;16.80;99.90;;;;;;5033686;28;20498;-71
2023/07/24 11:43:05;;;;;;;6.70;1.90;;;16.30;99.90;;;;;;5031826;28;20914;-71
2023/07/24 11:45:39;;;;;;;5.70;2.60;;;16.30;99.90;;;;;;5031505;28;20387;-72
2023/07/24 11:48:10;;;;;;;7.22;2.85;;;16.20;99.90;;;;;;5031121;28;20379;-73
2023/07/24 11:50:42;;;;;;;6.37;2.80;;;16.30;99.90;;;;;;5031060;28;20426;-73
2023/07/24 11:53:19;;;;;;;4.13;2.58;;;16.40;99.90;;;;;;5031166;28;20403;-73
2023/07/24 11:55:44;;;;;;;10.63;4.00;;;16.50;99.90;;;;;;5029278;28;20392;-73
2023/07/24 11:58:15;;;;;;;8.53;3.70;;;16.80;99.90;;;;;;5029824;28;20788;-71
2023/07/24 12:00:41;;;;;;;9.57;3.97;;;16.80;99.90;;;;;;5031196;28;20399;-72
2023/07/24 12:03:08;;;;;;;7.40;4.03;;;17.00;99.90;;;;;;5030731;28;20413;-72
2023/07/24 12:05:43;;;;;;;7.30;4.10;;;17.10;99.90;;;;;;5031612;28;20748;-73
2023/07/24 12:08:10;;;;;;;8.82;4.05;;;17.20;99.90;;;;;;5032271;28;20816;-72
2023/07/24 12:10:39;;;;;;;9.13;4.70;;;17.30;99.90;;;;;;5033184;28;20458;-72
2023/07/24 12:13:05;;;;;;;7.50;4.60;;;17.40;99.90;;;;;;5031574;28;20399;-72
2023/07/24 12:15:31;;;;;;;12.95;5.10;;;17.40;99.90;;;;;;5032857;28;20387;-72
2023/07/24 12:17:57;;;;;;;7.03;4.10;;;17.30;99.90;;;;;;5032948;28;20904;-73
2023/07/24 12:20:23;;;;;;;7.28;3.95;;;17.20;99.90;;;;;;5032756;28;20391;-72
2023/07/24 12:22:48;;;;;;;6.40;3.57;;;17.30;99.90;;;;;;5032767;28;20384;-72
2023/07/24 12:25:15;;;;;;;6.80;3.50;;;17.30;99.90;;;;;;5032268;28;20391;-73
2023/07/24 12:27:41;;;;;;;4.07;3.17;;;17.30;99.90;;;;;;5032922;28;20393;-73
2023/07/24 12:30:07;;;;;;;6.57;3.20;;;17.40;99.90;;;;;;5033200;28;20506;-72
2023/07/24 12:32:33;;;;;;;7.40;3.00;;;17.50;99.90;;;;;;5032811;28;20440;-70
2023/07/24 12:34:58;;;;;;;5.97;2.90;;;17.70;99.90;;;;;;5032568;28;20494;-73
2023/07/24 12:37:24;;;;;;;5.53;3.07;;;17.90;99.90;;;;;;5032013;28;20608;-72
2023/07/24 12:39:50;;;;;;;7.63;3.95;;;18.30;99.90;;;;;;5032908;28;20394;-72
2023/07/24 12:42:15;;;;;;;7.77;3.40;;;18.80;99.90;;;;;;5032659;28;21098;-73